createdAt,value
2023-02-20T00:01:52.468Z,6.63
2023-02-20T00:04:18.846Z,6.50
2023-02-20T00:06:45.529Z,6.73
2023-02-20T00:09:12.353Z,6.40
2023-02-20T00:11:38.671Z,7.27
2023-02-20T00:14:05.107Z,6.37
2023-02-20T00:16:31.391Z,6.53
2023-02-20T00:18:57.782Z,6.93
2023-02-20T00:21:24.145Z,5.73
2023-02-20T00:23:50.568Z,5.93
2023-02-20T00:26:17.092Z,6.30
2023-02-20T00:28:43.892Z,6.40
2023-02-20T00:31:12.746Z,6.03
2023-02-20T00:33:39.920Z,6.37
2023-02-20T00:36:06.563Z,5.93
2023-02-20T00:38:32.973Z,6.30
2023-02-20T00:40:59.340Z,6.77
2023-02-20T00:43:25.634Z,6.87
2023-02-20T00:45:51.918Z,6.57
2023-02-20T00:48:18.271Z,6.63
2023-02-20T00:50:44.662Z,7.67
2023-02-20T00:53:11.010Z,7.37
2023-02-20T00:55:37.318Z,7.17
2023-02-20T00:58:03.633Z,6.97
2023-02-20T01:00:30.511Z,7.73
2023-02-20T01:02:56.950Z,7.70
2023-02-20T01:05:23.981Z,7.90
2023-02-20T01:07:50.806Z,8.27
2023-02-20T01:10:17.240Z,7.93
2023-02-20T01:12:43.555Z,8.43
2023-02-20T01:15:11.471Z,8.30
2023-02-20T01:17:37.803Z,8.83
2023-02-20T01:20:04.201Z,8.57
2023-02-20T01:22:30.578Z,8.50
2023-02-20T01:24:56.978Z,9.10
2023-02-20T01:27:23.261Z,8.47
2023-02-20T01:29:49.568Z,8.83
2023-02-20T01:32:15.880Z,8.60
2023-02-20T01:34:42.253Z,8.17
2023-02-20T01:37:10.649Z,7.80
2023-02-20T01:39:36.966Z,7.43
2023-02-20T01:42:05.050Z,7.90
2023-02-20T01:44:35.583Z,7.83
2023-02-20T01:47:08.968Z,7.17
2023-02-20T01:49:49.612Z,6.97
2023-02-20T01:52:15.937Z,7.37
2023-02-20T01:54:43.639Z,7.13
2023-02-20T01:57:13.231Z,6.90
2023-02-20T01:59:41.134Z,6.67
2023-02-20T02:02:07.946Z,6.60
2023-02-20T02:04:35.891Z,6.83
2023-02-20T02:07:02.322Z,6.97
2023-02-20T02:09:33.910Z,6.53
2023-02-20T02:12:00.241Z,6.53
2023-02-20T02:14:26.866Z,6.70
2023-02-20T02:17:08.525Z,6.38
2023-02-20T02:19:53.517Z,6.47
2023-02-20T02:22:22.719Z,6.50
2023-02-20T02:25:07.784Z,7.07
2023-02-20T02:27:37.196Z,6.30
2023-02-20T02:30:12.581Z,6.67
2023-02-20T02:32:50.876Z,6.63
2023-02-20T02:35:46.286Z,6.67
2023-02-20T02:38:19.556Z,6.47
2023-02-20T02:40:51.122Z,6.57
2023-02-20T02:43:27.570Z,6.30
2023-02-20T02:45:55.395Z,6.33
2023-02-20T02:48:57.061Z,7.13
2023-02-20T02:51:28.100Z,7.37
2023-02-20T02:54:11.381Z,8.13
2023-02-20T02:56:39.451Z,7.73
2023-02-20T02:59:07.105Z,8.53
2023-02-20T03:01:35.465Z,7.87
2023-02-20T03:04:03.864Z,8.97
2023-02-20T03:06:35.869Z,9.83
2023-02-20T03:09:07.334Z,9.17
2023-02-20T03:11:34.579Z,9.87
2023-02-20T03:14:22.726Z,10.97
2023-02-20T03:16:51.902Z,10.75
2023-02-20T03:19:21.892Z,10.53
2023-02-20T03:21:48.565Z,12.70
2023-02-20T03:24:15.521Z,11.65
2023-02-20T03:26:42.805Z,11.60
2023-02-20T03:29:13.666Z,11.00
2023-02-20T03:31:40.170Z,12.20
2023-02-20T03:34:28.968Z,11.40
2023-02-20T03:37:34.213Z,12.00
2023-02-20T03:40:20.843Z,11.03
2023-02-20T03:43:07.961Z,11.37
2023-02-20T03:45:36.352Z,11.43
2023-02-20T03:48:06.415Z,11.13
2023-02-20T03:50:32.849Z,11.83
2023-02-20T03:52:59.449Z,11.57
2023-02-20T03:55:26.128Z,11.70
2023-02-20T03:57:53.818Z,11.40
2023-02-20T04:00:22.334Z,12.70
2023-02-20T04:02:50.695Z,12.30
2023-02-20T04:05:20.121Z,13.13
2023-02-20T04:07:54.974Z,13.07
2023-02-20T04:10:26.169Z,13.10
2023-02-20T04:12:53.452Z,13.35
2023-02-20T04:15:20.650Z,15.05
2023-02-20T04:17:58.402Z,14.03
2023-02-20T04:20:24.932Z,12.95
2023-02-20T04:22:52.770Z,14.27
2023-02-20T04:25:19.056Z,13.77
2023-02-20T04:27:45.502Z,13.50
2023-02-20T04:30:12.117Z,14.10
2023-02-20T04:32:38.436Z,12.93
2023-02-20T04:35:04.945Z,11.50
2023-02-20T04:37:31.308Z,12.13
2023-02-20T04:39:57.592Z,10.93
2023-02-20T04:42:23.908Z,10.27
2023-02-20T04:44:50.240Z,11.53
2023-02-20T04:47:17.723Z,10.60
2023-02-20T04:49:44.106Z,11.10
2023-02-20T04:52:10.385Z,10.93
2023-02-20T04:54:36.730Z,10.93
2023-02-20T04:57:03.105Z,10.50
2023-02-20T04:59:29.518Z,10.30
2023-02-20T05:01:56.335Z,10.00
2023-02-20T05:04:22.753Z,10.70
2023-02-20T05:06:50.732Z,10.27
2023-02-20T05:09:17.213Z,9.70
2023-02-20T05:11:43.807Z,10.67
2023-02-20T05:14:10.208Z,9.73
2023-02-20T05:16:37.265Z,10.50
2023-02-20T05:19:03.556Z,10.00
2023-02-20T05:21:48.588Z,10.93
2023-02-20T05:24:14.921Z,10.50
2023-02-20T05:26:41.332Z,10.10
2023-02-20T05:29:09.835Z,10.77
2023-02-20T05:31:36.330Z,9.87
2023-02-20T05:34:02.705Z,11.00
2023-02-20T05:36:29.074Z,11.17
2023-02-20T05:38:55.366Z,10.60
2023-02-20T05:41:22.050Z,11.40
2023-02-20T05:43:48.588Z,10.40
2023-02-20T05:46:15.925Z,10.70
2023-02-20T05:48:42.553Z,10.37
2023-02-20T05:51:09.002Z,11.27
2023-02-20T05:53:35.543Z,11.80
2023-02-20T05:56:03.120Z,12.07
2023-02-20T05:58:29.893Z,11.37
2023-02-20T06:00:56.387Z,11.30
2023-02-20T06:03:22.684Z,12.47
2023-02-20T06:05:48.973Z,11.27
2023-02-20T06:08:15.386Z,11.43
2023-02-20T06:10:41.690Z,11.83
2023-02-20T06:13:08.025Z,11.63
2023-02-20T06:15:34.392Z,10.32
2023-02-20T06:18:00.708Z,10.47
2023-02-20T06:20:27.149Z,9.77
2023-02-20T06:22:53.463Z,10.27
2023-02-20T06:25:19.781Z,10.20
2023-02-20T06:27:46.078Z,10.50
2023-02-20T06:30:12.564Z,11.00
2023-02-20T06:32:38.883Z,10.50
2023-02-20T06:35:05.602Z,9.80
2023-02-20T06:37:31.888Z,9.70
2023-02-20T06:39:58.441Z,9.30
2023-02-20T06:42:24.756Z,10.47
2023-02-20T06:44:51.062Z,10.47
2023-02-20T06:47:17.374Z,9.43
2023-02-20T06:49:43.964Z,10.07
2023-02-20T06:52:10.485Z,9.77
2023-02-20T06:54:36.850Z,9.90
2023-02-20T06:57:03.257Z,9.77
2023-02-20T06:59:29.753Z,10.47
2023-02-20T07:01:56.321Z,10.57
2023-02-20T07:04:27.806Z,10.33
2023-02-20T07:06:54.468Z,11.33
2023-02-20T07:09:20.868Z,11.23
2023-02-20T07:11:48.821Z,11.93
2023-02-20T07:14:15.214Z,12.23
2023-02-20T07:16:41.856Z,12.73
2023-02-20T07:19:08.160Z,13.43
2023-02-20T07:21:34.519Z,12.17
2023-02-20T07:24:00.861Z,14.07
2023-02-20T07:26:28.262Z,15.30
2023-02-20T07:28:55.133Z,13.43
2023-02-20T07:31:21.877Z,13.63
2023-02-20T07:33:48.311Z,14.67
2023-02-20T07:36:15.321Z,16.33
2023-02-20T07:38:41.742Z,16.27
2023-02-20T07:41:08.631Z,14.95
2023-02-20T07:43:35.160Z,16.63
2023-02-20T07:46:01.752Z,17.07
2023-02-20T07:48:28.142Z,15.30
2023-02-20T07:50:54.627Z,17.13
2023-02-20T07:53:21.254Z,15.63
2023-02-20T07:55:47.688Z,13.90
2023-02-20T07:58:14.053Z,16.58
2023-02-20T08:00:40.560Z,16.13
2023-02-20T08:03:06.856Z,15.57
2023-02-20T08:05:48.132Z,13.57
2023-02-20T08:08:15.672Z,14.23
2023-02-20T08:10:41.992Z,14.13
2023-02-20T08:13:08.557Z,14.45
2023-02-20T08:15:34.836Z,12.83
2023-02-20T08:18:01.139Z,13.43
2023-02-20T08:20:27.550Z,13.65
2023-02-20T08:22:53.847Z,13.53
2023-02-20T08:25:20.238Z,12.32
2023-02-20T08:27:47.782Z,14.55
2023-02-20T08:30:17.264Z,12.45
2023-02-20T08:32:43.652Z,12.60
2023-02-20T08:35:10.505Z,11.68
2023-02-20T08:37:36.790Z,11.88
2023-02-20T08:40:06.690Z,10.57
2023-02-20T08:42:34.033Z,10.50
2023-02-20T08:45:00.944Z,10.57
2023-02-20T08:47:27.226Z,9.43
2023-02-20T08:49:53.670Z,8.80
2023-02-20T08:52:20.173Z,9.15
2023-02-20T08:54:49.647Z,8.50
2023-02-20T08:57:16.333Z,9.43
2023-02-20T08:59:42.654Z,9.85
2023-02-20T09:02:15.410Z,9.20
2023-02-20T09:04:42.916Z,9.07
2023-02-20T09:07:09.197Z,8.73
2023-02-20T09:09:35.529Z,7.97
2023-02-20T09:12:01.853Z,9.75
2023-02-20T09:14:28.204Z,9.23
2023-02-20T09:16:54.608Z,9.40
2023-02-20T09:19:21.436Z,10.07
2023-02-20T09:21:48.557Z,8.88
2023-02-20T09:24:14.895Z,9.67
2023-02-20T09:26:41.220Z,9.65
2023-02-20T09:29:07.500Z,11.00
2023-02-20T09:31:34.278Z,9.30
2023-02-20T09:34:01.731Z,9.05
2023-02-20T09:36:28.069Z,9.02
2023-02-20T09:38:54.363Z,8.98
2023-02-20T09:41:33.545Z,9.60
2023-02-20T09:44:10.249Z,10.10
2023-02-20T09:46:37.058Z,7.82
2023-02-20T09:49:12.428Z,8.32
2023-02-20T09:51:40.505Z,7.97
2023-02-20T09:54:16.150Z,8.02
2023-02-20T09:56:46.014Z,8.18
2023-02-20T09:59:18.255Z,8.80
2023-02-20T10:02:04.999Z,10.27
2023-02-20T10:04:38.386Z,7.57
2023-02-20T10:07:12.351Z,8.52
2023-02-20T10:09:38.641Z,7.75
2023-02-20T10:12:04.901Z,7.90
2023-02-20T10:14:39.978Z,7.97
2023-02-20T10:17:15.597Z,13.65
2023-02-20T10:19:53.464Z,8.15
2023-02-20T10:22:29.687Z,7.70
2023-02-20T10:25:03.030Z,8.38
2023-02-20T10:27:47.921Z,7.97
2023-02-20T10:30:18.443Z,8.27
2023-02-20T10:32:55.133Z,8.77
2023-02-20T10:35:26.581Z,7.90
2023-02-20T10:37:55.295Z,8.00
2023-02-20T10:40:32.677Z,7.68
2023-02-20T10:43:00.621Z,7.75
2023-02-20T10:45:47.225Z,8.77
2023-02-20T10:48:15.658Z,8.27
2023-02-20T10:51:00.973Z,8.85
2023-02-20T10:53:33.713Z,8.23
2023-02-20T10:56:12.321Z,7.88
2023-02-20T10:58:44.712Z,8.52
2023-02-20T11:01:13.856Z,9.10
2023-02-20T11:03:43.069Z,9.25
2023-02-20T11:06:11.559Z,8.88
2023-02-20T11:08:38.298Z,8.90
2023-02-20T11:11:20.454Z,7.60
2023-02-20T11:13:46.783Z,7.55
2023-02-20T11:16:31.929Z,8.65
2023-02-20T11:19:18.470Z,8.45
2023-02-20T11:21:48.952Z,8.43
2023-02-20T11:24:19.846Z,8.45
2023-02-20T11:26:48.200Z,7.97
2023-02-20T11:29:16.681Z,9.20
2023-02-20T11:31:43.815Z,7.65
2023-02-20T11:34:24.468Z,8.60
2023-02-20T11:36:54.931Z,8.48
2023-02-20T11:39:29.202Z,8.30
2023-02-20T11:42:18.836Z,7.85
2023-02-20T11:44:45.494Z,7.55
2023-02-20T11:47:21.147Z,8.35
2023-02-20T11:49:47.917Z,8.15
2023-02-20T11:52:19.184Z,7.90
2023-02-20T11:54:47.080Z,7.32
2023-02-20T11:57:16.256Z,7.18
2023-02-20T11:59:46.454Z,7.25
2023-02-20T12:02:15.547Z,8.20
2023-02-20T12:04:46.342Z,7.55
2023-02-20T12:07:21.918Z,7.97
2023-02-20T12:09:50.090Z,7.18
2023-02-20T12:12:16.485Z,7.13
2023-02-20T12:14:42.813Z,7.45
2023-02-20T12:17:21.804Z,7.28
2023-02-20T12:19:58.905Z,8.30
2023-02-20T12:22:28.177Z,8.15
2023-02-20T12:25:18.531Z,8.23
2023-02-20T12:27:56.874Z,7.63
2023-02-20T12:30:38.365Z,7.88
2023-02-20T12:33:16.600Z,8.23
2023-02-20T12:36:09.229Z,7.72
2023-02-20T12:38:44.330Z,7.40
2023-02-20T12:41:16.609Z,7.35
2023-02-20T12:43:50.668Z,7.28
2023-02-20T12:46:19.563Z,7.47
2023-02-20T12:48:48.995Z,7.72
2023-02-20T12:51:24.749Z,8.25
2023-02-20T12:54:03.758Z,7.55
2023-02-20T12:56:38.219Z,7.90
2023-02-20T12:59:04.551Z,7.80
2023-02-20T13:01:39.083Z,7.75
2023-02-20T13:04:11.718Z,7.43
2023-02-20T13:06:49.970Z,7.07
2023-02-20T13:09:32.388Z,8.13
2023-02-20T13:12:02.349Z,7.05
2023-02-20T13:14:41.201Z,7.45
2023-02-20T13:17:13.579Z,7.70
2023-02-20T13:19:43.411Z,7.75
2023-02-20T13:22:09.789Z,7.82
2023-02-20T13:24:39.641Z,7.78
2023-02-20T13:27:07.305Z,6.97
2023-02-20T13:29:35.188Z,7.35
2023-02-20T13:32:24.737Z,7.00
2023-02-20T13:34:51.146Z,7.57
2023-02-20T13:37:38.511Z,7.30
2023-02-20T13:40:23.921Z,6.72
2023-02-20T13:43:10.183Z,6.78
2023-02-20T13:45:37.779Z,6.47
2023-02-20T13:48:22.906Z,5.80
2023-02-20T13:50:49.266Z,6.13
2023-02-20T13:53:16.045Z,6.10
2023-02-20T13:55:43.783Z,6.40
2023-02-20T13:58:12.470Z,6.03
2023-02-20T14:00:45.346Z,6.68
2023-02-20T14:03:13.254Z,6.63
2023-02-20T14:05:39.749Z,6.30
2023-02-20T14:08:06.149Z,5.97
2023-02-20T14:10:34.018Z,5.90
2023-02-20T14:13:07.519Z,5.63
2023-02-20T14:15:42.716Z,4.97
2023-02-20T14:18:20.525Z,5.88
2023-02-20T14:20:47.105Z,5.60
2023-02-20T14:23:20.995Z,5.68
2023-02-20T14:26:00.188Z,5.60
2023-02-20T14:28:28.583Z,6.28
2023-02-20T14:31:07.187Z,5.93
2023-02-20T14:33:34.184Z,6.20
2023-02-20T14:36:06.772Z,6.55
2023-02-20T14:38:33.077Z,6.13
2023-02-20T14:41:01.362Z,6.88
2023-02-20T14:43:28.455Z,6.45
2023-02-20T14:45:59.876Z,6.90
2023-02-20T14:48:31.230Z,6.57
2023-02-20T14:51:16.424Z,5.80
2023-02-20T14:53:44.373Z,5.50
2023-02-20T14:56:12.298Z,5.57
2023-02-20T14:58:38.870Z,6.03
2023-02-20T15:01:20.402Z,6.88
2023-02-20T15:03:58.660Z,5.95
2023-02-20T15:06:26.425Z,6.40
2023-02-20T15:08:57.346Z,5.90
2023-02-20T15:11:23.738Z,5.43
2023-02-20T15:13:50.127Z,5.97
2023-02-20T15:16:24.076Z,5.28
2023-02-20T15:18:50.897Z,5.32
2023-02-20T15:21:33.881Z,5.00
2023-02-20T15:24:32.727Z,5.53
2023-02-20T15:27:08.079Z,5.10
2023-02-20T15:29:34.407Z,5.43
2023-02-20T15:32:05.414Z,5.22
2023-02-20T15:34:36.235Z,5.63
2023-02-20T15:37:12.255Z,5.63
2023-02-20T15:39:41.599Z,5.80
2023-02-20T15:42:11.550Z,5.53
2023-02-20T15:44:37.862Z,6.28
2023-02-20T15:47:04.206Z,6.05
2023-02-20T15:49:30.502Z,6.03
2023-02-20T15:52:07.825Z,6.97
2023-02-20T15:54:35.521Z,6.97
2023-02-20T15:57:01.872Z,6.75
2023-02-20T15:59:28.240Z,6.78
2023-02-20T16:01:54.651Z,7.03
2023-02-20T16:04:21.056Z,7.10
2023-02-20T16:06:47.593Z,7.38
2023-02-20T16:09:14.089Z,7.13
2023-02-20T16:11:42.016Z,7.93
2023-02-20T16:14:09.170Z,7.20
2023-02-20T16:16:40.123Z,8.07
2023-02-20T16:19:14.999Z,7.07
2023-02-20T16:21:53.148Z,7.25
2023-02-20T16:24:24.306Z,7.38
2023-02-20T16:26:50.662Z,7.10
2023-02-20T16:29:22.172Z,7.32
2023-02-20T16:32:00.897Z,7.30
2023-02-20T16:34:32.340Z,7.40
2023-02-20T16:36:59.213Z,7.00
2023-02-20T16:39:27.255Z,7.13
2023-02-20T16:41:54.620Z,7.25
2023-02-20T16:44:20.990Z,7.20
2023-02-20T16:46:50.140Z,7.80
2023-02-20T16:49:17.512Z,7.72
2023-02-20T16:51:51.064Z,7.90
2023-02-20T16:54:17.690Z,8.30
2023-02-20T16:56:44.139Z,8.23
2023-02-20T16:59:10.454Z,8.65
2023-02-20T17:01:37.580Z,8.88
2023-02-20T17:04:04.242Z,8.73
2023-02-20T17:06:30.717Z,8.02
2023-02-20T17:08:57.553Z,8.35
2023-02-20T17:11:23.926Z,8.57
2023-02-20T17:13:50.384Z,8.82
2023-02-20T17:16:25.535Z,8.55
2023-02-20T17:18:56.960Z,9.40
2023-02-20T17:21:23.257Z,8.88
2023-02-20T17:23:53.388Z,8.93
2023-02-20T17:26:19.680Z,9.27
2023-02-20T17:28:45.966Z,9.32
2023-02-20T17:31:12.739Z,9.23
2023-02-20T17:33:40.806Z,10.15
2023-02-20T17:36:07.439Z,9.52
2023-02-20T17:38:33.963Z,9.63
2023-02-20T17:41:00.924Z,9.90
2023-02-20T17:43:27.478Z,10.10
2023-02-20T17:45:53.765Z,9.35
2023-02-20T17:48:20.039Z,9.40
2023-02-20T17:50:46.544Z,9.43
2023-02-20T17:53:14.196Z,9.38
2023-02-20T17:55:40.484Z,9.90
2023-02-20T17:58:07.245Z,10.23
2023-02-20T18:00:33.747Z,9.90
2023-02-20T18:03:00.131Z,9.73
2023-02-20T18:05:26.436Z,10.75
2023-02-20T18:07:52.791Z,10.00
2023-02-20T18:10:19.517Z,10.45
2023-02-20T18:13:02.202Z,10.50
2023-02-20T18:15:29.433Z,10.57
2023-02-20T18:17:55.912Z,10.95
2023-02-20T18:20:22.234Z,11.05
2023-02-20T18:22:48.528Z,11.20
2023-02-20T18:25:15.994Z,11.35
2023-02-20T18:27:42.295Z,13.43
2023-02-20T18:30:09.157Z,11.10
2023-02-20T18:32:35.688Z,11.15
2023-02-20T18:35:02.064Z,11.77
2023-02-20T18:37:28.352Z,11.80
2023-02-20T18:39:54.654Z,11.73
2023-02-20T18:42:20.934Z,11.98
2023-02-20T18:44:48.668Z,12.60
2023-02-20T18:47:15.530Z,12.40
2023-02-20T18:49:42.002Z,11.85
2023-02-20T18:52:08.551Z,11.73
2023-02-20T18:54:34.951Z,11.45
2023-02-20T18:57:02.230Z,12.00
2023-02-20T18:59:28.658Z,12.38
2023-02-20T19:01:55.471Z,11.88
2023-02-20T19:04:22.086Z,11.77
2023-02-20T19:06:50.244Z,11.25
2023-02-20T19:09:17.994Z,12.60
2023-02-20T19:11:55.109Z,12.02
2023-02-20T19:14:22.314Z,22.25
2023-02-20T19:16:52.965Z,12.10
2023-02-20T19:19:23.912Z,13.02
2023-02-20T19:21:50.721Z,12.57
2023-02-20T19:24:17.010Z,12.38
2023-02-20T19:26:43.485Z,12.85
2023-02-20T19:29:10.884Z,13.02
2023-02-20T19:31:37.314Z,12.82
2023-02-20T19:34:07.434Z,13.38
2023-02-20T19:36:34.337Z,13.50
2023-02-20T19:39:00.644Z,12.63
2023-02-20T19:41:26.951Z,13.43
2023-02-20T19:43:55.098Z,13.63
2023-02-20T19:46:23.154Z,13.27
2023-02-20T19:48:49.898Z,13.63
2023-02-20T19:51:17.046Z,13.73
2023-02-20T19:53:44.188Z,13.43
2023-02-20T19:56:10.916Z,14.48
2023-02-20T19:58:40.065Z,13.25
2023-02-20T20:01:06.897Z,14.25
2023-02-20T20:03:33.973Z,14.43
2023-02-20T20:06:00.252Z,13.32
2023-02-20T20:08:26.539Z,13.73
2023-02-20T20:10:53.031Z,14.02
2023-02-20T20:13:19.355Z,13.80
2023-02-20T20:15:47.501Z,14.02
2023-02-20T20:18:14.405Z,13.45
2023-02-20T20:20:40.698Z,13.82
2023-02-20T20:23:07.557Z,13.38
2023-02-20T20:25:33.984Z,13.65
2023-02-20T20:28:04.462Z,14.77
2023-02-20T20:30:33.300Z,13.60
2023-02-20T20:32:59.965Z,14.95
2023-02-20T20:35:27.212Z,14.15
2023-02-20T20:37:53.813Z,13.80
2023-02-20T20:40:22.722Z,14.77
2023-02-20T20:42:49.213Z,14.38
2023-02-20T20:45:16.163Z,14.52
2023-02-20T20:47:44.123Z,12.93
2023-02-20T20:50:11.437Z,14.40
2023-02-20T20:52:37.716Z,13.48
2023-02-20T20:55:04.783Z,13.07
2023-02-20T20:57:32.505Z,13.23
2023-02-20T21:00:00.393Z,13.38
2023-02-20T21:02:27.358Z,13.85
2023-02-20T21:05:08.959Z,13.50
2023-02-20T21:07:36.549Z,17.50
2023-02-20T21:10:02.945Z,13.07
2023-02-20T21:12:29.227Z,12.40
2023-02-20T21:14:55.573Z,13.30
2023-02-20T21:17:22.203Z,12.10
2023-02-20T21:19:48.523Z,12.13
2023-02-20T21:22:15.227Z,12.02
2023-02-20T21:24:41.558Z,11.55
2023-02-20T21:27:07.917Z,12.02
2023-02-20T21:29:37.242Z,12.35
2023-02-20T21:32:03.649Z,12.32
2023-02-20T21:34:30.047Z,12.50
2023-02-20T21:36:56.451Z,12.15
2023-02-20T21:39:24.130Z,12.38
2023-02-20T21:42:09.142Z,12.88
2023-02-20T21:44:36.529Z,12.40
2023-02-20T21:47:04.258Z,12.60
2023-02-20T21:49:31.679Z,12.52
2023-02-20T21:51:58.492Z,12.93
2023-02-20T21:54:27.213Z,12.25
2023-02-20T21:56:53.999Z,12.57
2023-02-20T21:59:20.287Z,12.40
2023-02-20T22:01:46.774Z,11.97
2023-02-20T22:04:13.991Z,11.50
2023-02-20T22:06:41.045Z,12.88
2023-02-20T22:09:27.191Z,11.68
2023-02-20T22:12:13.121Z,11.95
2023-02-20T22:14:58.088Z,11.48
2023-02-20T22:17:43.066Z,11.98
2023-02-20T22:20:29.641Z,12.25
2023-02-20T22:23:14.783Z,12.07
2023-02-20T22:26:00.815Z,11.47
2023-02-20T22:28:45.743Z,11.60
2023-02-20T22:31:30.860Z,11.07
2023-02-20T22:34:15.858Z,12.63
2023-02-20T22:37:01.063Z,11.73
2023-02-20T22:39:46.075Z,11.35
2023-02-20T22:42:35.328Z,12.50
2023-02-20T22:45:20.863Z,11.98
2023-02-20T22:48:05.942Z,11.67
2023-02-20T22:50:50.962Z,12.15
2023-02-20T22:53:36.068Z,12.43
2023-02-20T22:56:21.113Z,12.52
2023-02-20T22:59:06.230Z,12.60
2023-02-20T23:01:51.263Z,12.95
2023-02-20T23:04:36.381Z,12.53
2023-02-20T23:07:21.266Z,13.47
2023-02-20T23:10:06.164Z,14.20
2023-02-20T23:12:51.265Z,13.57
2023-02-20T23:15:36.238Z,13.68
2023-02-20T23:18:21.428Z,13.52
2023-02-20T23:21:06.584Z,14.10
2023-02-20T23:23:51.686Z,13.90
2023-02-20T23:26:36.681Z,14.10
2023-02-20T23:29:21.748Z,15.38
2023-02-20T23:32:06.767Z,14.50
2023-02-20T23:34:51.800Z,14.90
2023-02-20T23:37:36.889Z,15.48
2023-02-20T23:40:34.664Z,14.68
2023-02-20T23:43:20.952Z,16.08
2023-02-20T23:46:06.153Z,15.15
2023-02-20T23:48:51.032Z,15.60
2023-02-20T23:51:36.049Z,15.82
2023-02-20T23:54:20.837Z,16.40
2023-02-20T23:57:06.093Z,16.40
2023-02-20T23:59:51.179Z,16.27
